createdAt,value
2024-04-18T00:02:47.627Z,30.30
2024-04-18T00:08:05.885Z,29.30
2024-04-18T00:13:07.625Z,28.00
2024-04-18T00:18:29.216Z,50.70
2024-04-18T00:23:31.074Z,42.10
2024-04-18T00:28:50.571Z,42.60
2024-04-18T00:33:52.329Z,40.60
2024-04-18T00:39:03.024Z,42.40
2024-04-18T00:44:04.737Z,32.50
2024-04-18T00:49:07.129Z,46.20
2024-04-18T00:54:28.339Z,51.20
2024-04-18T00:59:33.610Z,42.20
2024-04-18T01:04:51.377Z,38.70
2024-04-18T01:10:13.001Z,27.30
2024-04-18T01:15:14.790Z,24.50
2024-04-18T01:20:19.279Z,48.00
2024-04-18T01:25:20.893Z,42.10
2024-04-18T01:30:22.562Z,46.90
2024-04-18T01:35:24.246Z,33.20
2024-04-18T01:40:26.032Z,31.60
2024-04-18T01:45:46.375Z,33.90
2024-04-18T01:50:48.076Z,51.00
2024-04-18T01:56:07.167Z,42.40
2024-04-18T02:01:25.460Z,46.90
2024-04-18T02:06:27.265Z,50.20
2024-04-18T02:11:29.232Z,29.50
2024-04-18T02:16:46.071Z,39.90
2024-04-18T02:22:00.153Z,67.10
2024-04-18T02:27:07.837Z,68.40
2024-04-18T02:32:09.483Z,54.20
2024-04-18T02:37:11.334Z,43.70
2024-04-18T02:42:13.102Z,36.60
2024-04-18T02:47:35.256Z,22.90
2024-04-18T02:52:39.887Z,43.00
2024-04-18T02:57:49.609Z,59.00
2024-04-18T03:02:51.410Z,57.00
2024-04-18T03:07:58.469Z,47.60
2024-04-18T03:13:18.401Z,39.30
2024-04-18T03:18:26.339Z,33.10
2024-04-18T03:23:40.420Z,51.40
2024-04-18T03:28:42.079Z,45.70
2024-04-18T03:33:43.932Z,43.40
2024-04-18T03:38:45.574Z,38.10
2024-04-18T03:43:47.348Z,27.70
2024-04-18T03:48:49.016Z,49.60
2024-04-18T03:53:50.734Z,45.50
2024-04-18T03:58:53.662Z,47.80
2024-04-18T04:09:14.018Z,36.40
2024-04-18T04:14:16.262Z,58.50
2024-04-18T04:19:30.080Z,63.20
2024-04-18T04:24:32.088Z,56.90
2024-04-18T04:29:53.739Z,52.10
2024-04-18T04:34:55.525Z,33.90
2024-04-18T04:39:57.305Z,56.30
2024-04-18T04:44:59.121Z,62.20
2024-04-18T04:50:04.955Z,52.90
2024-04-18T04:55:12.582Z,44.20
2024-04-18T05:00:14.980Z,39.00
2024-04-18T05:05:43.788Z,47.00
2024-04-18T05:15:47.947Z,39.10
2024-04-18T05:21:05.011Z,33.20
2024-04-18T05:26:33.647Z,45.80
2024-04-18T05:31:36.989Z,42.60
2024-04-18T05:36:40.769Z,53.20
2024-04-18T05:41:42.550Z,42.90
2024-04-18T05:47:04.568Z,40.50
2024-04-18T05:52:06.412Z,26.20
2024-04-18T05:57:08.574Z,37.40
2024-04-18T06:02:25.556Z,33.80
2024-04-18T06:07:27.367Z,33.40
2024-04-18T06:12:29.138Z,39.50
2024-04-18T06:17:30.980Z,37.10
2024-04-18T06:22:33.015Z,38.80
2024-04-18T06:27:53.153Z,33.50
2024-04-18T06:32:55.003Z,25.90
2024-04-18T06:37:57.107Z,34.10
2024-04-18T06:42:59.123Z,36.10
2024-04-18T06:48:01.075Z,33.20
2024-04-18T06:53:03.066Z,36.40
2024-04-18T06:58:05.306Z,35.00
2024-04-18T07:03:13.284Z,29.20
2024-04-18T07:08:27.257Z,38.50
2024-04-18T07:13:33.845Z,37.30
2024-04-18T07:18:56.662Z,34.80
2024-04-18T07:24:01.634Z,34.70
2024-04-18T07:29:16.190Z,30.30
2024-04-18T07:34:18.119Z,35.30
2024-04-18T07:39:20.767Z,34.60
2024-04-18T07:44:24.880Z,28.90
2024-04-18T07:49:27.044Z,24.50
2024-04-18T07:54:28.929Z,26.80
2024-04-18T07:59:31.046Z,30.70
2024-04-18T08:04:51.857Z,26.60
2024-04-18T08:09:59.979Z,30.70
2024-04-18T08:15:11.350Z,32.10
2024-04-18T08:20:16.400Z,27.40
2024-04-18T08:25:18.138Z,27.10
2024-04-18T08:30:20.578Z,26.20
2024-04-18T08:35:22.532Z,22.70
2024-04-18T08:40:29.485Z,25.90
2024-04-18T08:45:35.473Z,25.10
2024-04-18T08:50:41.930Z,22.40
2024-04-18T08:55:50.218Z,23.80
2024-04-18T09:05:54.595Z,26.20
2024-04-18T09:10:59.674Z,29.40
2024-04-18T09:16:01.617Z,22.70
2024-04-18T09:21:03.475Z,33.20
2024-04-18T09:26:05.180Z,22.50
2024-04-18T09:31:07.511Z,25.70
2024-04-18T09:36:09.924Z,21.30
2024-04-18T09:41:24.610Z,20.10
2024-04-18T09:46:29.615Z,22.50
2024-04-18T09:51:31.530Z,22.10
2024-04-18T09:56:35.316Z,18.00
2024-04-18T10:01:38.531Z,18.10
2024-04-18T10:06:44.609Z,15.80
2024-04-18T10:11:46.738Z,16.10
2024-04-18T10:27:08.812Z,16.10
2024-04-18T10:32:10.552Z,14.30
2024-04-18T10:37:12.523Z,14.90
2024-04-18T10:42:16.066Z,15.80
2024-04-18T10:47:22.439Z,12.50
2024-04-18T10:52:25.357Z,15.30
2024-04-18T10:57:27.306Z,17.20
2024-04-18T11:02:30.119Z,16.80
2024-04-18T11:07:33.423Z,16.70
2024-04-18T11:12:35.802Z,13.50
2024-04-18T11:22:40.502Z,15.70
2024-04-18T11:27:42.314Z,16.90
2024-04-18T11:32:44.347Z,11.60
2024-04-18T11:37:46.561Z,10.00
2024-04-18T11:42:48.224Z,8.20
2024-04-18T11:47:57.109Z,10.30
2024-04-18T11:52:59.045Z,14.10
2024-04-18T11:58:06.877Z,13.50
2024-04-18T12:03:11.575Z,13.90
2024-04-18T12:08:27.548Z,15.30
2024-04-18T12:13:29.360Z,12.00
2024-04-18T12:18:31.390Z,9.40
2024-04-18T12:23:43.904Z,10.20
2024-04-18T12:28:46.741Z,11.90
2024-04-18T12:33:48.575Z,10.70
2024-04-18T12:38:50.612Z,6.90
2024-04-18T12:43:52.368Z,6.30
2024-04-18T12:54:14.895Z,6.90
2024-04-18T12:59:22.948Z,7.00
2024-04-18T13:04:25.016Z,10.00
2024-04-18T13:09:27.041Z,9.50
2024-04-18T13:14:34.304Z,7.30
2024-04-18T13:19:36.072Z,6.40
2024-04-18T13:30:02.529Z,7.70
2024-04-18T13:35:08.565Z,9.40
2024-04-18T13:40:11.089Z,10.40
2024-04-18T13:45:33.970Z,10.50
2024-04-18T13:50:36.084Z,10.00
2024-04-18T13:55:37.880Z,12.30
2024-04-18T14:00:39.770Z,11.00
2024-04-18T14:06:00.687Z,8.70
2024-04-18T14:11:11.420Z,10.90
2024-04-18T14:16:52.108Z,11.40
2024-04-18T14:22:07.444Z,7.70
2024-04-18T14:27:09.564Z,10.00
2024-04-18T14:32:31.245Z,10.80
2024-04-18T14:37:39.178Z,9.00
2024-04-18T14:42:41.499Z,8.80
2024-04-18T14:47:43.500Z,13.40
2024-04-18T14:52:45.293Z,10.20
2024-04-18T14:58:05.502Z,11.00
2024-04-18T15:03:23.132Z,7.90
2024-04-18T15:13:27.586Z,6.90
2024-04-18T15:18:29.559Z,9.90
2024-04-18T15:23:51.232Z,6.60
2024-04-18T15:29:00.579Z,4.90
2024-04-18T15:34:22.497Z,5.00
2024-04-18T15:39:30.129Z,4.70
2024-04-18T15:50:00.346Z,7.20
2024-04-18T15:55:12.393Z,6.30
2024-04-18T16:00:21.304Z,8.70
2024-04-18T16:05:24.363Z,10.40
2024-04-18T16:10:41.638Z,9.80
2024-04-18T16:16:03.627Z,11.60
2024-04-18T16:21:12.025Z,7.50
2024-04-18T16:26:14.182Z,6.50
2024-04-18T16:31:16.109Z,8.40
2024-04-18T16:36:27.889Z,7.30
2024-04-18T16:41:42.978Z,7.90
2024-04-18T16:46:44.839Z,7.90
2024-04-18T16:51:49.562Z,7.80
2024-04-18T16:56:58.542Z,7.30
2024-04-18T17:02:19.561Z,9.00
2024-04-18T17:07:21.236Z,4.50
2024-04-18T17:12:55.373Z,9.20
2024-04-18T17:18:23.398Z,4.80
2024-04-18T17:23:31.725Z,5.60
2024-04-18T17:28:33.343Z,6.20
2024-04-18T17:33:38.096Z,5.70
2024-04-18T17:38:40.917Z,9.10
2024-04-18T17:44:02.908Z,7.80
2024-04-18T17:49:25.216Z,4.80
2024-04-18T17:54:27.148Z,4.80
2024-04-18T17:59:29.194Z,4.80
2024-04-18T18:04:30.925Z,6.50
2024-04-18T18:09:32.727Z,8.10
2024-04-18T18:14:34.539Z,6.50
2024-04-18T18:19:36.512Z,7.90
2024-04-18T18:24:40.386Z,8.80
2024-04-18T18:29:43.607Z,9.30
2024-04-18T18:34:46.795Z,15.00
2024-04-18T18:39:49.397Z,17.80
2024-04-18T18:44:51.276Z,16.40
2024-04-18T18:49:53.075Z,12.30
2024-04-18T18:54:55.879Z,10.60
2024-04-18T18:59:57.852Z,13.30
2024-04-18T19:04:59.678Z,19.60
2024-04-18T19:10:01.436Z,25.80
2024-04-18T19:15:03.642Z,24.70
2024-04-18T19:20:06.582Z,33.30
2024-04-18T19:25:08.516Z,30.80
2024-04-18T19:30:10.681Z,29.40
2024-04-18T19:35:14.809Z,35.40
2024-04-18T19:40:17.152Z,21.90
2024-04-18T19:45:37.924Z,17.10
2024-04-18T19:50:40.513Z,19.20
2024-04-18T19:56:00.471Z,15.40
2024-04-18T20:01:05.378Z,17.50
2024-04-18T20:06:09.477Z,22.50
2024-04-18T20:11:27.177Z,21.70
2024-04-18T20:16:28.910Z,25.10
2024-04-18T20:21:45.828Z,20.80
2024-04-18T20:26:47.594Z,21.20
2024-04-18T20:31:49.318Z,14.90
2024-04-18T20:36:51.368Z,26.40
2024-04-18T20:41:54.263Z,20.70
2024-04-18T20:51:57.834Z,17.20
2024-04-18T20:57:19.552Z,18.50
2024-04-18T21:02:23.412Z,21.90
2024-04-18T21:07:31.045Z,21.60
2024-04-18T21:12:33.327Z,17.20
2024-04-18T21:17:35.143Z,30.90
2024-04-18T21:22:36.917Z,28.80
2024-04-18T21:27:38.807Z,31.40
2024-04-18T21:32:40.651Z,23.00
2024-04-18T21:37:42.455Z,21.30
2024-04-18T21:42:44.283Z,24.30
2024-04-18T21:47:46.166Z,20.20
2024-04-18T21:52:48.194Z,28.10
2024-04-18T21:57:49.934Z,27.40
2024-04-18T22:02:51.960Z,22.60
2024-04-18T22:07:53.649Z,23.00
2024-04-18T22:12:56.182Z,14.90
2024-04-18T22:17:58.016Z,17.50
2024-04-18T22:22:59.910Z,17.70
2024-04-18T22:28:01.898Z,24.60
2024-04-18T22:33:03.843Z,25.90
2024-04-18T22:38:05.671Z,28.00
2024-04-18T22:43:07.355Z,22.40
2024-04-18T22:48:09.790Z,18.90
2024-04-18T22:53:12.086Z,16.90
2024-04-18T22:58:13.912Z,16.30
2024-04-18T23:03:35.668Z,20.00
2024-04-18T23:08:50.246Z,22.50
2024-04-18T23:13:51.896Z,22.70
2024-04-18T23:18:53.668Z,24.00
2024-04-18T23:23:55.705Z,21.00
2024-04-18T23:28:57.460Z,22.50
2024-04-18T23:33:59.446Z,17.50
2024-04-18T23:39:01.463Z,26.00
2024-04-18T23:44:08.046Z,25.70
2024-04-18T23:49:09.905Z,28.90
2024-04-18T23:54:11.950Z,21.60
2024-04-18T23:59:13.809Z,30.20
